sensor_id;sensor_type;location;lat;lon;timestamp;P1;durP1;ratioP1;P2;durP2;ratioP2
61385;SDS011;47256;18.904;-99.054;2023-12-20T00:00:03;46.95;;;18.98;;
61385;SDS011;47256;18.904;-99.054;2023-12-20T00:02:32;55.40;;;20.23;;
61385;SDS011;47256;18.904;-99.054;2023-12-20T00:05:00;57.67;;;20.20;;
61385;SDS011;47256;18.904;-99.054;2023-12-20T00:07:28;51.95;;;19.20;;
61385;SDS011;47256;18.904;-99.054;2023-12-20T00:09:55;47.55;;;16.23;;
61385;SDS011;47256;18.904;-99.054;2023-12-20T00:12:26;47.35;;;15.15;;
61385;SDS011;47256;18.904;-99.054;2023-12-20T00:14:53;32.60;;;13.43;;
61385;SDS011;47256;18.904;-99.054;2023-12-20T00:17:20;37.80;;;13.10;;
61385;SDS011;47256;18.904;-99.054;2023-12-20T00:19:47;31.98;;;10.45;;
61385;SDS011;47256;18.904;-99.054;2023-12-20T00:22:17;49.47;;;12.30;;
61385;SDS011;47256;18.904;-99.054;2023-12-20T00:24:44;33.92;;;14.15;;
61385;SDS011;47256;18.904;-99.054;2023-12-20T00:27:11;46.70;;;15.18;;
61385;SDS011;47256;18.904;-99.054;2023-12-20T00:29:38;35.72;;;13.80;;
61385;SDS011;47256;18.904;-99.054;2023-12-20T00:32:06;38.15;;;12.43;;
61385;SDS011;47256;18.904;-99.054;2023-12-20T00:34:34;36.53;;;12.48;;
61385;SDS011;47256;18.904;-99.054;2023-12-20T00:37:01;30.85;;;11.20;;
61385;SDS011;47256;18.904;-99.054;2023-12-20T00:39:29;39.28;;;13.07;;
61385;SDS011;47256;18.904;-99.054;2023-12-20T00:41:56;46.40;;;13.00;;
61385;SDS011;47256;18.904;-99.054;2023-12-20T00:44:23;35.40;;;13.32;;
61385;SDS011;47256;18.904;-99.054;2023-12-20T00:46:50;23.67;;;10.88;;
61385;SDS011;47256;18.904;-99.054;2023-12-20T00:49:18;32.45;;;11.65;;
61385;SDS011;47256;18.904;-99.054;2023-12-20T00:51:45;25.20;;;11.07;;
61385;SDS011;47256;18.904;-99.054;2023-12-20T00:54:15;22.85;;;11.63;;
61385;SDS011;47256;18.904;-99.054;2023-12-20T00:56:43;23.70;;;10.48;;
61385;SDS011;47256;18.904;-99.054;2023-12-20T00:59:12;28.23;;;11.40;;
61385;SDS011;47256;18.904;-99.054;2023-12-20T01:01:41;37.83;;;15.55;;
61385;SDS011;47256;18.904;-99.054;2023-12-20T01:04:09;25.20;;;13.10;;
61385;SDS011;47256;18.904;-99.054;2023-12-20T01:06:38;29.10;;;14.02;;
61385;SDS011;47256;18.904;-99.054;2023-12-20T01:09:06;35.10;;;13.73;;
61385;SDS011;47256;18.904;-99.054;2023-12-20T01:11:34;38.25;;;14.27;;
61385;SDS011;47256;18.904;-99.054;2023-12-20T01:14:02;28.67;;;12.65;;
61385;SDS011;47256;18.904;-99.054;2023-12-20T01:16:29;30.50;;;13.10;;
61385;SDS011;47256;18.904;-99.054;2023-12-20T01:18:57;30.42;;;12.90;;
61385;SDS011;47256;18.904;-99.054;2023-12-20T01:21:24;31.10;;;14.10;;
61385;SDS011;47256;18.904;-99.054;2023-12-20T01:23:52;28.67;;;12.65;;
61385;SDS011;47256;18.904;-99.054;2023-12-20T01:26:19;40.85;;;17.20;;
61385;SDS011;47256;18.904;-99.054;2023-12-20T01:28:47;32.85;;;15.18;;
61385;SDS011;47256;18.904;-99.054;2023-12-20T01:31:14;26.90;;;13.18;;
61385;SDS011;47256;18.904;-99.054;2023-12-20T01:33:42;27.85;;;12.23;;
61385;SDS011;47256;18.904;-99.054;2023-12-20T01:36:27;29.02;;;12.68;;
61385;SDS011;47256;18.904;-99.054;2023-12-20T01:38:55;27.88;;;12.07;;
61385;SDS011;47256;18.904;-99.054;2023-12-20T01:41:22;23.40;;;12.35;;
61385;SDS011;47256;18.904;-99.054;2023-12-20T01:43:51;33.45;;;13.32;;
61385;SDS011;47256;18.904;-99.054;2023-12-20T01:46:20;25.27;;;13.00;;
61385;SDS011;47256;18.904;-99.054;2023-12-20T01:48:47;35.10;;;16.27;;
61385;SDS011;47256;18.904;-99.054;2023-12-20T01:51:15;34.45;;;15.60;;
61385;SDS011;47256;18.904;-99.054;2023-12-20T01:53:43;30.15;;;15.30;;
61385;SDS011;47256;18.904;-99.054;2023-12-20T01:56:10;23.20;;;13.18;;
61385;SDS011;47256;18.904;-99.054;2023-12-20T01:58:41;37.25;;;13.27;;
61385;SDS011;47256;18.904;-99.054;2023-12-20T02:01:12;42.60;;;13.02;;
61385;SDS011;47256;18.904;-99.054;2023-12-20T02:03:43;34.78;;;13.73;;
61385;SDS011;47256;18.904;-99.054;2023-12-20T02:06:11;39.10;;;17.25;;
61385;SDS011;47256;18.904;-99.054;2023-12-20T02:08:39;45.90;;;18.77;;
61385;SDS011;47256;18.904;-99.054;2023-12-20T02:11:07;39.75;;;16.95;;
61385;SDS011;47256;18.904;-99.054;2023-12-20T02:13:34;41.70;;;21.15;;
61385;SDS011;47256;18.904;-99.054;2023-12-20T02:16:02;49.20;;;21.25;;
61385;SDS011;47256;18.904;-99.054;2023-12-20T02:18:30;49.72;;;22.17;;
61385;SDS011;47256;18.904;-99.054;2023-12-20T02:20:58;41.35;;;17.98;;
61385;SDS011;47256;18.904;-99.054;2023-12-20T02:23:25;37.88;;;18.52;;
61385;SDS011;47256;18.904;-99.054;2023-12-20T02:25:53;56.28;;;22.65;;
61385;SDS011;47256;18.904;-99.054;2023-12-20T02:28:21;50.70;;;23.42;;
61385;SDS011;47256;18.904;-99.054;2023-12-20T02:30:49;50.33;;;26.88;;
61385;SDS011;47256;18.904;-99.054;2023-12-20T02:33:17;56.05;;;26.25;;
61385;SDS011;47256;18.904;-99.054;2023-12-20T02:35:44;62.42;;;27.52;;
61385;SDS011;47256;18.904;-99.054;2023-12-20T02:38:11;53.60;;;23.67;;
61385;SDS011;47256;18.904;-99.054;2023-12-20T02:40:38;44.10;;;21.55;;
61385;SDS011;47256;18.904;-99.054;2023-12-20T02:43:06;46.55;;;18.85;;
61385;SDS011;47256;18.904;-99.054;2023-12-20T02:45:33;38.88;;;20.02;;
61385;SDS011;47256;18.904;-99.054;2023-12-20T02:48:00;34.58;;;15.95;;
61385;SDS011;47256;18.904;-99.054;2023-12-20T02:50:28;33.13;;;15.35;;
61385;SDS011;47256;18.904;-99.054;2023-12-20T02:52:55;43.60;;;15.98;;
61385;SDS011;47256;18.904;-99.054;2023-12-20T02:55:23;39.95;;;15.55;;
61385;SDS011;47256;18.904;-99.054;2023-12-20T02:57:51;29.63;;;14.43;;
61385;SDS011;47256;18.904;-99.054;2023-12-20T03:00:19;28.48;;;14.13;;
61385;SDS011;47256;18.904;-99.054;2023-12-20T03:02:47;27.65;;;15.25;;
61385;SDS011;47256;18.904;-99.054;2023-12-20T03:05:14;49.20;;;19.85;;
61385;SDS011;47256;18.904;-99.054;2023-12-20T03:07:43;59.08;;;23.70;;
61385;SDS011;47256;18.904;-99.054;2023-12-20T03:10:10;48.63;;;20.42;;
61385;SDS011;47256;18.904;-99.054;2023-12-20T03:12:38;44.20;;;21.83;;
61385;SDS011;47256;18.904;-99.054;2023-12-20T03:15:07;46.00;;;22.17;;
61385;SDS011;47256;18.904;-99.054;2023-12-20T03:17:34;53.28;;;22.13;;
61385;SDS011;47256;18.904;-99.054;2023-12-20T03:20:01;65.88;;;26.63;;
61385;SDS011;47256;18.904;-99.054;2023-12-20T03:22:30;67.28;;;25.83;;
61385;SDS011;47256;18.904;-99.054;2023-12-20T03:24:58;49.83;;;21.67;;
61385;SDS011;47256;18.904;-99.054;2023-12-20T03:27:31;50.10;;;23.60;;
61385;SDS011;47256;18.904;-99.054;2023-12-20T03:29:58;58.72;;;23.13;;
61385;SDS011;47256;18.904;-99.054;2023-12-20T03:32:26;82.45;;;26.38;;
61385;SDS011;47256;18.904;-99.054;2023-12-20T03:34:53;101.90;;;30.60;;
61385;SDS011;47256;18.904;-99.054;2023-12-20T03:37:21;70.68;;;26.63;;
61385;SDS011;47256;18.904;-99.054;2023-12-20T03:39:48;57.63;;;22.95;;
61385;SDS011;47256;18.904;-99.054;2023-12-20T03:42:16;65.15;;;23.38;;
61385;SDS011;47256;18.904;-99.054;2023-12-20T03:44:43;59.83;;;25.52;;
61385;SDS011;47256;18.904;-99.054;2023-12-20T03:47:10;51.38;;;23.15;;
61385;SDS011;47256;18.904;-99.054;2023-12-20T03:49:37;62.90;;;25.77;;
61385;SDS011;47256;18.904;-99.054;2023-12-20T03:52:05;52.83;;;25.88;;
61385;SDS011;47256;18.904;-99.054;2023-12-20T03:54:32;50.65;;;23.30;;
61385;SDS011;47256;18.904;-99.054;2023-12-20T03:57:02;45.30;;;20.88;;
61385;SDS011;47256;18.904;-99.054;2023-12-20T03:59:29;38.17;;;20.02;;
61385;SDS011;47256;18.904;-99.054;2023-12-20T04:02:01;32.00;;;18.95;;
61385;SDS011;47256;18.904;-99.054;2023-12-20T04:04:28;43.78;;;23.08;;
61385;SDS011;47256;18.904;-99.054;2023-12-20T04:07:04;42.80;;;22.17;;
61385;SDS011;47256;18.904;-99.054;2023-12-20T04:09:32;47.42;;;21.25;;
61385;SDS011;47256;18.904;-99.054;2023-12-20T04:11:59;47.13;;;22.45;;
61385;SDS011;47256;18.904;-99.054;2023-12-20T04:14:27;42.78;;;20.67;;
61385;SDS011;47256;18.904;-99.054;2023-12-20T04:16:54;48.85;;;22.42;;
61385;SDS011;47256;18.904;-99.054;2023-12-20T04:19:21;62.03;;;26.88;;
61385;SDS011;47256;18.904;-99.054;2023-12-20T04:21:50;57.22;;;25.50;;
61385;SDS011;47256;18.904;-99.054;2023-12-20T04:24:18;49.80;;;22.27;;
61385;SDS011;47256;18.904;-99.054;2023-12-20T04:26:45;45.50;;;20.27;;
61385;SDS011;47256;18.904;-99.054;2023-12-20T04:29:12;45.97;;;20.92;;
61385;SDS011;47256;18.904;-99.054;2023-12-20T04:31:40;39.92;;;20.48;;
61385;SDS011;47256;18.904;-99.054;2023-12-20T04:34:07;46.80;;;22.48;;
61385;SDS011;47256;18.904;-99.054;2023-12-20T04:36:35;45.00;;;20.75;;
61385;SDS011;47256;18.904;-99.054;2023-12-20T04:39:03;48.88;;;19.45;;
61385;SDS011;47256;18.904;-99.054;2023-12-20T04:41:31;44.65;;;20.30;;
61385;SDS011;47256;18.904;-99.054;2023-12-20T04:43:58;42.33;;;18.17;;
61385;SDS011;47256;18.904;-99.054;2023-12-20T04:46:26;34.95;;;17.73;;
61385;SDS011;47256;18.904;-99.054;2023-12-20T04:48:53;33.25;;;17.48;;
61385;SDS011;47256;18.904;-99.054;2023-12-20T04:51:21;36.45;;;18.77;;
61385;SDS011;47256;18.904;-99.054;2023-12-20T04:53:48;40.90;;;17.95;;
61385;SDS011;47256;18.904;-99.054;2023-12-20T04:56:16;37.63;;;18.50;;
61385;SDS011;47256;18.904;-99.054;2023-12-20T04:58:44;34.75;;;16.75;;
61385;SDS011;47256;18.904;-99.054;2023-12-20T05:01:12;35.85;;;15.98;;
61385;SDS011;47256;18.904;-99.054;2023-12-20T05:03:40;38.60;;;16.85;;
61385;SDS011;47256;18.904;-99.054;2023-12-20T05:06:07;32.10;;;17.38;;
61385;SDS011;47256;18.904;-99.054;2023-12-20T05:08:36;43.60;;;18.70;;
61385;SDS011;47256;18.904;-99.054;2023-12-20T05:11:07;35.00;;;18.83;;
61385;SDS011;47256;18.904;-99.054;2023-12-20T05:13:35;48.33;;;20.13;;
61385;SDS011;47256;18.904;-99.054;2023-12-20T05:16:05;56.92;;;21.05;;
61385;SDS011;47256;18.904;-99.054;2023-12-20T05:18:36;60.03;;;24.63;;
61385;SDS011;47256;18.904;-99.054;2023-12-20T05:21:03;55.97;;;22.13;;
61385;SDS011;47256;18.904;-99.054;2023-12-20T05:23:31;51.25;;;20.77;;
61385;SDS011;47256;18.904;-99.054;2023-12-20T05:25:58;41.40;;;20.20;;
61385;SDS011;47256;18.904;-99.054;2023-12-20T05:28:26;38.40;;;20.02;;
61385;SDS011;47256;18.904;-99.054;2023-12-20T05:30:53;37.45;;;18.10;;
61385;SDS011;47256;18.904;-99.054;2023-12-20T05:33:21;37.42;;;18.02;;
61385;SDS011;47256;18.904;-99.054;2023-12-20T05:35:48;33.85;;;17.40;;
61385;SDS011;47256;18.904;-99.054;2023-12-20T05:38:15;29.65;;;16.15;;
61385;SDS011;47256;18.904;-99.054;2023-12-20T05:40:43;28.45;;;15.90;;
61385;SDS011;47256;18.904;-99.054;2023-12-20T05:43:10;37.78;;;16.25;;
61385;SDS011;47256;18.904;-99.054;2023-12-20T05:45:37;32.30;;;17.77;;
61385;SDS011;47256;18.904;-99.054;2023-12-20T05:48:05;28.30;;;14.80;;
61385;SDS011;47256;18.904;-99.054;2023-12-20T05:50:33;26.73;;;16.40;;
61385;SDS011;47256;18.904;-99.054;2023-12-20T05:53:01;39.35;;;19.42;;
61385;SDS011;47256;18.904;-99.054;2023-12-20T05:55:28;33.80;;;17.77;;
61385;SDS011;47256;18.904;-99.054;2023-12-20T05:57:56;32.45;;;17.60;;
61385;SDS011;47256;18.904;-99.054;2023-12-20T06:00:24;28.08;;;16.50;;
61385;SDS011;47256;18.904;-99.054;2023-12-20T06:02:54;35.08;;;16.63;;
61385;SDS011;47256;18.904;-99.054;2023-12-20T06:05:21;36.80;;;18.45;;
61385;SDS011;47256;18.904;-99.054;2023-12-20T06:07:49;34.00;;;16.38;;
61385;SDS011;47256;18.904;-99.054;2023-12-20T06:10:17;36.65;;;18.73;;
61385;SDS011;47256;18.904;-99.054;2023-12-20T06:12:45;34.72;;;16.48;;
61385;SDS011;47256;18.904;-99.054;2023-12-20T06:15:16;27.02;;;16.50;;
61385;SDS011;47256;18.904;-99.054;2023-12-20T06:17:43;34.40;;;16.98;;
61385;SDS011;47256;18.904;-99.054;2023-12-20T06:20:10;32.70;;;16.92;;
61385;SDS011;47256;18.904;-99.054;2023-12-20T06:22:39;35.13;;;16.55;;
61385;SDS011;47256;18.904;-99.054;2023-12-20T06:25:06;30.23;;;15.75;;
61385;SDS011;47256;18.904;-99.054;2023-12-20T06:27:34;30.13;;;16.02;;
61385;SDS011;47256;18.904;-99.054;2023-12-20T06:30:02;28.67;;;16.08;;
61385;SDS011;47256;18.904;-99.054;2023-12-20T06:32:29;24.90;;;14.85;;
61385;SDS011;47256;18.904;-99.054;2023-12-20T06:34:56;25.77;;;13.95;;
61385;SDS011;47256;18.904;-99.054;2023-12-20T06:37:24;29.35;;;14.57;;
61385;SDS011;47256;18.904;-99.054;2023-12-20T06:39:51;30.48;;;15.45;;
61385;SDS011;47256;18.904;-99.054;2023-12-20T06:42:18;33.05;;;15.15;;
61385;SDS011;47256;18.904;-99.054;2023-12-20T06:44:46;28.33;;;15.10;;
61385;SDS011;47256;18.904;-99.054;2023-12-20T06:47:13;31.83;;;15.20;;
61385;SDS011;47256;18.904;-99.054;2023-12-20T06:49:40;30.52;;;14.85;;
61385;SDS011;47256;18.904;-99.054;2023-12-20T06:52:07;29.65;;;15.10;;
61385;SDS011;47256;18.904;-99.054;2023-12-20T06:54:35;26.80;;;14.45;;
61385;SDS011;47256;18.904;-99.054;2023-12-20T06:57:29;37.65;;;16.10;;
61385;SDS011;47256;18.904;-99.054;2023-12-20T06:59:56;25.70;;;14.10;;
61385;SDS011;47256;18.904;-99.054;2023-12-20T07:02:25;31.88;;;14.30;;
61385;SDS011;47256;18.904;-99.054;2023-12-20T07:04:56;32.17;;;14.15;;
61385;SDS011;47256;18.904;-99.054;2023-12-20T07:07:25;25.30;;;14.23;;
61385;SDS011;47256;18.904;-99.054;2023-12-20T07:09:53;29.55;;;15.10;;
61385;SDS011;47256;18.904;-99.054;2023-12-20T07:12:20;25.23;;;13.95;;
61385;SDS011;47256;18.904;-99.054;2023-12-20T07:14:48;26.90;;;13.75;;
61385;SDS011;47256;18.904;-99.054;2023-12-20T07:17:15;26.38;;;14.20;;
61385;SDS011;47256;18.904;-99.054;2023-12-20T07:19:42;29.10;;;14.88;;
61385;SDS011;47256;18.904;-99.054;2023-12-20T07:22:10;35.15;;;14.80;;
61385;SDS011;47256;18.904;-99.054;2023-12-20T07:24:38;30.08;;;15.48;;
61385;SDS011;47256;18.904;-99.054;2023-12-20T07:27:05;29.20;;;15.23;;
61385;SDS011;47256;18.904;-99.054;2023-12-20T07:29:32;29.50;;;14.70;;
61385;SDS011;47256;18.904;-99.054;2023-12-20T07:32:00;24.73;;;15.15;;
61385;SDS011;47256;18.904;-99.054;2023-12-20T07:34:28;31.92;;;17.10;;
61385;SDS011;47256;18.904;-99.054;2023-12-20T07:36:56;33.88;;;14.40;;
61385;SDS011;47256;18.904;-99.054;2023-12-20T07:39:23;28.30;;;14.93;;
61385;SDS011;47256;18.904;-99.054;2023-12-20T07:41:50;32.63;;;16.35;;
61385;SDS011;47256;18.904;-99.054;2023-12-20T07:44:17;29.48;;;15.65;;
61385;SDS011;47256;18.904;-99.054;2023-12-20T07:46:45;39.03;;;15.70;;
61385;SDS011;47256;18.904;-99.054;2023-12-20T07:49:12;41.22;;;15.68;;
61385;SDS011;47256;18.904;-99.054;2023-12-20T07:51:39;29.67;;;17.00;;
61385;SDS011;47256;18.904;-99.054;2023-12-20T07:54:06;28.75;;;14.85;;
61385;SDS011;47256;18.904;-99.054;2023-12-20T07:56:35;30.25;;;14.27;;
61385;SDS011;47256;18.904;-99.054;2023-12-20T07:59:03;32.13;;;14.68;;
61385;SDS011;47256;18.904;-99.054;2023-12-20T08:01:32;24.33;;;13.98;;
61385;SDS011;47256;18.904;-99.054;2023-12-20T08:04:00;33.67;;;15.68;;
61385;SDS011;47256;18.904;-99.054;2023-12-20T08:06:28;31.33;;;13.82;;
61385;SDS011;47256;18.904;-99.054;2023-12-20T08:08:56;27.25;;;14.27;;
61385;SDS011;47256;18.904;-99.054;2023-12-20T08:11:23;28.35;;;15.35;;
61385;SDS011;47256;18.904;-99.054;2023-12-20T08:13:51;29.67;;;14.65;;
61385;SDS011;47256;18.904;-99.054;2023-12-20T08:16:18;26.90;;;13.15;;
61385;SDS011;47256;18.904;-99.054;2023-12-20T08:18:45;29.08;;;13.65;;
61385;SDS011;47256;18.904;-99.054;2023-12-20T08:21:20;31.48;;;14.27;;
61385;SDS011;47256;18.904;-99.054;2023-12-20T08:23:48;30.00;;;14.55;;
61385;SDS011;47256;18.904;-99.054;2023-12-20T08:26:18;30.67;;;14.48;;
61385;SDS011;47256;18.904;-99.054;2023-12-20T08:28:50;30.85;;;15.00;;
61385;SDS011;47256;18.904;-99.054;2023-12-20T08:31:18;27.70;;;14.05;;
61385;SDS011;47256;18.904;-99.054;2023-12-20T08:33:45;32.03;;;14.93;;
61385;SDS011;47256;18.904;-99.054;2023-12-20T08:36:14;26.20;;;14.50;;
61385;SDS011;47256;18.904;-99.054;2023-12-20T08:38:44;35.55;;;14.48;;
61385;SDS011;47256;18.904;-99.054;2023-12-20T08:41:12;28.50;;;15.48;;
61385;SDS011;47256;18.904;-99.054;2023-12-20T08:43:41;30.92;;;14.48;;
61385;SDS011;47256;18.904;-99.054;2023-12-20T08:46:08;24.67;;;13.82;;
61385;SDS011;47256;18.904;-99.054;2023-12-20T08:48:36;30.90;;;14.68;;
61385;SDS011;47256;18.904;-99.054;2023-12-20T08:51:03;26.55;;;13.75;;
61385;SDS011;47256;18.904;-99.054;2023-12-20T08:53:34;25.27;;;14.23;;
61385;SDS011;47256;18.904;-99.054;2023-12-20T08:56:02;28.67;;;15.77;;
61385;SDS011;47256;18.904;-99.054;2023-12-20T08:58:31;28.02;;;13.82;;
61385;SDS011;47256;18.904;-99.054;2023-12-20T09:00:59;26.58;;;15.23;;
61385;SDS011;47256;18.904;-99.054;2023-12-20T09:03:30;28.70;;;15.00;;
61385;SDS011;47256;18.904;-99.054;2023-12-20T09:05:57;26.95;;;14.55;;
61385;SDS011;47256;18.904;-99.054;2023-12-20T09:08:24;25.45;;;15.05;;
61385;SDS011;47256;18.904;-99.054;2023-12-20T09:10:55;24.63;;;13.63;;
61385;SDS011;47256;18.904;-99.054;2023-12-20T09:13:22;28.98;;;14.13;;
61385;SDS011;47256;18.904;-99.054;2023-12-20T09:15:58;30.10;;;13.95;;
61385;SDS011;47256;18.904;-99.054;2023-12-20T09:18:25;27.92;;;13.35;;
61385;SDS011;47256;18.904;-99.054;2023-12-20T09:21:18;25.52;;;14.00;;
61385;SDS011;47256;18.904;-99.054;2023-12-20T09:23:46;23.20;;;13.63;;
61385;SDS011;47256;18.904;-99.054;2023-12-20T09:26:14;24.73;;;13.70;;
61385;SDS011;47256;18.904;-99.054;2023-12-20T09:28:41;25.20;;;13.73;;
61385;SDS011;47256;18.904;-99.054;2023-12-20T09:31:08;23.45;;;14.30;;
61385;SDS011;47256;18.904;-99.054;2023-12-20T09:33:36;24.17;;;14.15;;
61385;SDS011;47256;18.904;-99.054;2023-12-20T09:36:03;24.80;;;13.27;;
61385;SDS011;47256;18.904;-99.054;2023-12-20T09:38:31;29.65;;;12.68;;
61385;SDS011;47256;18.904;-99.054;2023-12-20T09:40:58;21.88;;;13.48;;
61385;SDS011;47256;18.904;-99.054;2023-12-20T09:43:27;23.67;;;14.10;;
61385;SDS011;47256;18.904;-99.054;2023-12-20T09:45:55;24.83;;;12.82;;
61385;SDS011;47256;18.904;-99.054;2023-12-20T09:48:29;22.27;;;13.07;;
61385;SDS011;47256;18.904;-99.054;2023-12-20T09:50:57;27.55;;;13.30;;
61385;SDS011;47256;18.904;-99.054;2023-12-20T09:53:25;22.63;;;13.10;;
61385;SDS011;47256;18.904;-99.054;2023-12-20T09:55:58;29.75;;;13.90;;
61385;SDS011;47256;18.904;-99.054;2023-12-20T09:58:29;22.42;;;13.15;;
61385;SDS011;47256;18.904;-99.054;2023-12-20T10:00:57;22.08;;;12.50;;
61385;SDS011;47256;18.904;-99.054;2023-12-20T10:03:27;26.42;;;13.40;;
61385;SDS011;47256;18.904;-99.054;2023-12-20T10:05:56;22.77;;;13.27;;
61385;SDS011;47256;18.904;-99.054;2023-12-20T10:08:25;22.75;;;12.55;;
61385;SDS011;47256;18.904;-99.054;2023-12-20T10:10:52;22.20;;;12.52;;
61385;SDS011;47256;18.904;-99.054;2023-12-20T10:13:20;21.00;;;13.45;;
61385;SDS011;47256;18.904;-99.054;2023-12-20T10:15:47;21.90;;;13.50;;
61385;SDS011;47256;18.904;-99.054;2023-12-20T10:18:17;23.77;;;14.02;;
61385;SDS011;47256;18.904;-99.054;2023-12-20T10:20:44;25.27;;;12.30;;
61385;SDS011;47256;18.904;-99.054;2023-12-20T10:23:14;26.75;;;12.45;;
61385;SDS011;47256;18.904;-99.054;2023-12-20T10:25:42;22.20;;;13.35;;
61385;SDS011;47256;18.904;-99.054;2023-12-20T10:28:13;21.98;;;12.57;;
61385;SDS011;47256;18.904;-99.054;2023-12-20T10:30:45;21.05;;;12.25;;
61385;SDS011;47256;18.904;-99.054;2023-12-20T10:33:13;23.98;;;11.88;;
61385;SDS011;47256;18.904;-99.054;2023-12-20T10:35:49;24.20;;;12.13;;
61385;SDS011;47256;18.904;-99.054;2023-12-20T10:38:16;22.52;;;13.75;;
61385;SDS011;47256;18.904;-99.054;2023-12-20T10:40:45;29.75;;;13.23;;
61385;SDS011;47256;18.904;-99.054;2023-12-20T10:43:12;21.23;;;11.95;;
61385;SDS011;47256;18.904;-99.054;2023-12-20T10:45:44;29.17;;;13.30;;
61385;SDS011;47256;18.904;-99.054;2023-12-20T10:48:12;27.05;;;12.45;;
61385;SDS011;47256;18.904;-99.054;2023-12-20T10:50:39;21.05;;;12.52;;
61385;SDS011;47256;18.904;-99.054;2023-12-20T10:53:08;25.48;;;11.63;;
61385;SDS011;47256;18.904;-99.054;2023-12-20T10:55:36;21.40;;;12.35;;
61385;SDS011;47256;18.904;-99.054;2023-12-20T10:58:08;23.27;;;13.07;;
61385;SDS011;47256;18.904;-99.054;2023-12-20T11:00:39;26.65;;;12.88;;
61385;SDS011;47256;18.904;-99.054;2023-12-20T11:03:08;31.98;;;12.25;;
61385;SDS011;47256;18.904;-99.054;2023-12-20T11:08:28;15.20;;;9.98;;
61385;SDS011;47256;18.904;-99.054;2023-12-20T11:14:07;23.98;;;11.82;;
61385;SDS011;47256;18.904;-99.054;2023-12-20T11:16:41;27.40;;;12.07;;
61385;SDS011;47256;18.904;-99.054;2023-12-20T11:19:08;18.63;;;11.75;;
61385;SDS011;47256;18.904;-99.054;2023-12-20T11:21:41;22.25;;;11.00;;
61385;SDS011;47256;18.904;-99.054;2023-12-20T11:24:09;20.48;;;10.65;;
61385;SDS011;47256;18.904;-99.054;2023-12-20T11:26:36;24.45;;;11.20;;
61385;SDS011;47256;18.904;-99.054;2023-12-20T11:32:02;29.33;;;10.80;;
61385;SDS011;47256;18.904;-99.054;2023-12-20T11:34:33;27.90;;;12.65;;
61385;SDS011;47256;18.904;-99.054;2023-12-20T11:37:02;22.50;;;12.25;;
61385;SDS011;47256;18.904;-99.054;2023-12-20T11:39:30;23.88;;;11.75;;
61385;SDS011;47256;18.904;-99.054;2023-12-20T11:41:58;20.42;;;11.63;;
61385;SDS011;47256;18.904;-99.054;2023-12-20T11:44:32;18.83;;;10.80;;
61385;SDS011;47256;18.904;-99.054;2023-12-20T11:47:00;23.40;;;11.35;;
61385;SDS011;47256;18.904;-99.054;2023-12-20T11:49:27;22.85;;;10.77;;
61385;SDS011;47256;18.904;-99.054;2023-12-20T11:51:57;22.00;;;11.70;;
61385;SDS011;47256;18.904;-99.054;2023-12-20T11:54:26;17.92;;;10.95;;
61385;SDS011;47256;18.904;-99.054;2023-12-20T11:56:53;20.58;;;11.90;;
61385;SDS011;47256;18.904;-99.054;2023-12-20T11:59:23;20.27;;;11.10;;
61385;SDS011;47256;18.904;-99.054;2023-12-20T12:01:50;21.30;;;11.82;;
61385;SDS011;47256;18.904;-99.054;2023-12-20T12:04:23;19.40;;;10.85;;
61385;SDS011;47256;18.904;-99.054;2023-12-20T12:06:50;24.33;;;12.38;;
61385;SDS011;47256;18.904;-99.054;2023-12-20T12:09:19;27.90;;;12.75;;
61385;SDS011;47256;18.904;-99.054;2023-12-20T12:11:46;27.02;;;10.88;;
61385;SDS011;47256;18.904;-99.054;2023-12-20T12:14:14;26.00;;;13.18;;
61385;SDS011;47256;18.904;-99.054;2023-12-20T12:16:41;20.90;;;11.23;;
61385;SDS011;47256;18.904;-99.054;2023-12-20T12:19:23;27.80;;;12.35;;
61385;SDS011;47256;18.904;-99.054;2023-12-20T12:22:03;22.80;;;11.68;;
61385;SDS011;47256;18.904;-99.054;2023-12-20T12:24:41;22.47;;;11.27;;
61385;SDS011;47256;18.904;-99.054;2023-12-20T12:27:10;21.73;;;10.45;;
61385;SDS011;47256;18.904;-99.054;2023-12-20T12:29:38;15.85;;;9.85;;
61385;SDS011;47256;18.904;-99.054;2023-12-20T12:32:06;17.13;;;10.57;;
61385;SDS011;47256;18.904;-99.054;2023-12-20T12:34:35;21.83;;;11.07;;
61385;SDS011;47256;18.904;-99.054;2023-12-20T12:37:05;20.00;;;10.27;;
61385;SDS011;47256;18.904;-99.054;2023-12-20T12:39:33;18.95;;;10.98;;
61385;SDS011;47256;18.904;-99.054;2023-12-20T12:42:04;21.85;;;10.15;;
61385;SDS011;47256;18.904;-99.054;2023-12-20T12:44:32;18.77;;;8.90;;
61385;SDS011;47256;18.904;-99.054;2023-12-20T12:47:00;20.13;;;9.80;;
61385;SDS011;47256;18.904;-99.054;2023-12-20T12:49:29;18.20;;;10.75;;
61385;SDS011;47256;18.904;-99.054;2023-12-20T12:51:56;26.65;;;11.27;;
61385;SDS011;47256;18.904;-99.054;2023-12-20T12:54:24;21.50;;;9.85;;
61385;SDS011;47256;18.904;-99.054;2023-12-20T12:56:51;18.52;;;10.27;;
61385;SDS011;47256;18.904;-99.054;2023-12-20T12:59:20;23.40;;;10.40;;
61385;SDS011;47256;18.904;-99.054;2023-12-20T13:01:47;16.98;;;9.57;;
61385;SDS011;47256;18.904;-99.054;2023-12-20T13:04:17;24.45;;;11.48;;
61385;SDS011;47256;18.904;-99.054;2023-12-20T13:06:44;27.25;;;13.00;;
61385;SDS011;47256;18.904;-99.054;2023-12-20T13:09:15;24.70;;;13.90;;
61385;SDS011;47256;18.904;-99.054;2023-12-20T13:11:44;26.20;;;14.23;;
61385;SDS011;47256;18.904;-99.054;2023-12-20T13:14:11;34.85;;;14.85;;
61385;SDS011;47256;18.904;-99.054;2023-12-20T13:16:41;26.15;;;14.70;;
61385;SDS011;47256;18.904;-99.054;2023-12-20T13:19:13;31.98;;;13.98;;
61385;SDS011;47256;18.904;-99.054;2023-12-20T13:21:40;24.08;;;14.60;;
61385;SDS011;47256;18.904;-99.054;2023-12-20T13:24:08;21.67;;;14.10;;
61385;SDS011;47256;18.904;-99.054;2023-12-20T13:26:35;27.63;;;13.55;;
61385;SDS011;47256;18.904;-99.054;2023-12-20T13:29:03;26.95;;;11.95;;
61385;SDS011;47256;18.904;-99.054;2023-12-20T13:31:30;28.15;;;13.00;;
61385;SDS011;47256;18.904;-99.054;2023-12-20T13:33:58;25.48;;;11.57;;
61385;SDS011;47256;18.904;-99.054;2023-12-20T13:36:26;27.02;;;12.40;;
61385;SDS011;47256;18.904;-99.054;2023-12-20T13:38:53;23.92;;;12.48;;
61385;SDS011;47256;18.904;-99.054;2023-12-20T13:41:21;29.75;;;12.55;;
61385;SDS011;47256;18.904;-99.054;2023-12-20T13:43:49;30.48;;;12.02;;
61385;SDS011;47256;18.904;-99.054;2023-12-20T13:46:16;31.23;;;12.05;;
61385;SDS011;47256;18.904;-99.054;2023-12-20T13:48:43;24.50;;;11.85;;
61385;SDS011;47256;18.904;-99.054;2023-12-20T13:51:13;21.58;;;12.85;;
61385;SDS011;47256;18.904;-99.054;2023-12-20T13:53:42;22.50;;;11.07;;
61385;SDS011;47256;18.904;-99.054;2023-12-20T13:56:09;21.08;;;10.55;;
61385;SDS011;47256;18.904;-99.054;2023-12-20T13:58:37;26.30;;;11.38;;
61385;SDS011;47256;18.904;-99.054;2023-12-20T14:01:05;22.45;;;10.93;;
61385;SDS011;47256;18.904;-99.054;2023-12-20T14:03:35;26.25;;;10.73;;
61385;SDS011;47256;18.904;-99.054;2023-12-20T14:06:02;25.77;;;12.73;;
61385;SDS011;47256;18.904;-99.054;2023-12-20T14:08:30;38.20;;;12.55;;
61385;SDS011;47256;18.904;-99.054;2023-12-20T14:10:57;21.60;;;11.32;;